Nashville, TN (37221)

11:37 AM CST on January 27, 2015 (GMT -0600)
Horseshoe Bend | Change Station
CLOSE
Current Station
Personal Weather Station
Location: Nashville, TN
Elevation: 571 ft
Nearby Weather Stations

Elev 571 ft 36.05 °N, 86.93 °W | Updated 9 minutes ago

Overcast
Overcast
40.8 °F
Feels Like 37 °F
N
5.3
Wind Variable Wind from SW

Today
High -- | Low -- °F
--% Chance of Precip.
Yesterday
High -- | Low -- °F
Precip. -- in
6:52 AM 5:09 PM
First Quarter, 56% visible
Pressure 30.09 in
Visibility 10.0 miles
Clouds Mostly Cloudy 2200 ft
Mostly Cloudy 2700 ft
Mostly Cloudy 4000 ft
Windchill 37 °F
Dew Point 34 °F
Humidity 76%
Rainfall 0.00 in
Snow Depth Not available.
UV 2 out of 12
Pollen .90 out of 12
Air Quality Not available.
Flu Activity Not available.
METAR KBNA 271653Z 02007KT 10SM BKN022 BKN027 BKN040 06/01 A3008 RMK AO2 SLP188 T00560006

More Conditions Fewer Conditions

Pressure 30.09 in
Visibility 10.0 miles
Clouds Mostly Cloudy 2200 ft
Mostly Cloudy 2700 ft
Mostly Cloudy 4000 ft
Windchill 37 °F
Dew Point 34 °F
Humidity 76%
Rainfall 0.00 in
Snow Depth Not available.
UV 2 out of 12
Pollen .90 out of 12
Air Quality Not available.
Flu Activity Not available.
METAR KBNA 271653Z 02007KT 10SM BKN022 BKN027 BKN040 06/01 A3008 RMK AO2 SLP188 T00560006

More Conditions Fewer Conditions

10-Day Weather Forecast

Almanac

Astronomy

Jan. 27, 2015 Rise Set
Actual Time
Civil Twilight
Nautical Twilight
Astronomical Twilight
Moon
Length of Visible Light
Length of Day
Tomorrow will be .
, % of the Moon is Illuminated

Today's Extremes

State Highs State Lows

Community

WunderPhotos

Upload Photos

1,790,732 photos uploaded!

WunderBlogs® & News

Nearby

Air Quality

  Air Quality AQ Index Pollutant
Not available.

Snow Depth

Station Depth Elevation

Earthquake Activity

City Distance Mag. Time & Date
Minimum magnitude displayed is 2.5.

Coastal Water Temperatures

Place Temperature

Nearby Weather Stations